createdAt,value
2018-04-18T00:01:54.024Z,13.62
2018-04-18T00:04:21.589Z,13.62
2018-04-18T00:06:49.177Z,13.65
2018-04-18T00:09:16.740Z,13.64
2018-04-18T00:11:44.369Z,13.63
2018-04-18T00:14:11.932Z,13.49
2018-04-18T00:16:39.740Z,13.45
2018-04-18T00:19:07.316Z,13.47
2018-04-18T00:21:34.886Z,13.43
2018-04-18T00:24:02.604Z,13.40
2018-04-18T00:26:30.215Z,13.37
2018-04-18T00:28:57.921Z,13.40
2018-04-18T00:31:25.748Z,13.38
2018-04-18T00:33:53.306Z,13.36
2018-04-18T00:36:20.897Z,13.34
2018-04-18T00:38:48.469Z,13.39
2018-04-18T00:41:16.042Z,13.44
2018-04-18T00:43:43.642Z,13.44
2018-04-18T00:46:11.455Z,13.37
2018-04-18T00:48:39.020Z,13.33
2018-04-18T00:51:06.612Z,13.31
2018-04-18T00:53:34.200Z,13.23
2018-04-18T00:56:01.779Z,13.10
2018-04-18T00:58:29.351Z,13.07
2018-04-18T01:00:57.163Z,13.08
2018-04-18T01:03:24.732Z,13.14
2018-04-18T01:05:52.348Z,13.15
2018-04-18T01:08:19.921Z,13.08
2018-04-18T01:10:47.504Z,13.06
2018-04-18T01:13:15.076Z,13.05
2018-04-18T01:15:42.748Z,13.04
2018-04-18T01:18:10.378Z,13.06
2018-04-18T01:20:38.106Z,13.09
2018-04-18T01:23:05.668Z,13.06
2018-04-18T01:25:33.237Z,13.08
2018-04-18T01:28:00.960Z,13.12
2018-04-18T01:30:28.588Z,13.08
2018-04-18T01:32:56.397Z,13.15
2018-04-18T01:35:24.216Z,13.16
2018-04-18T01:37:51.788Z,13.13
2018-04-18T01:40:19.552Z,13.09
2018-04-18T01:42:47.361Z,12.97
2018-04-18T01:45:15.193Z,12.87
2018-04-18T01:47:43.009Z,12.85
2018-04-18T01:50:10.826Z,12.79
2018-04-18T01:52:38.561Z,12.74
2018-04-18T01:55:06.188Z,12.78
2018-04-18T01:57:33.944Z,12.71
2018-04-18T02:00:01.517Z,12.68
2018-04-18T02:02:29.080Z,12.62
2018-04-18T02:04:56.640Z,12.62
2018-04-18T02:07:24.256Z,12.58
2018-04-18T02:09:51.971Z,12.59
2018-04-18T02:12:19.536Z,12.55
2018-04-18T02:14:47.309Z,12.42
2018-04-18T02:17:14.879Z,12.40
2018-04-18T02:19:42.480Z,12.41
2018-04-18T02:22:10.045Z,12.40
2018-04-18T02:24:37.880Z,12.32
2018-04-18T02:27:05.596Z,12.28
2018-04-18T02:29:33.196Z,12.28
2018-04-18T02:32:00.815Z,12.18
2018-04-18T02:34:28.389Z,12.20
2018-04-18T02:36:56.159Z,12.19
2018-04-18T02:39:23.777Z,12.15
2018-04-18T02:41:51.605Z,12.14
2018-04-18T02:44:19.423Z,12.22
2018-04-18T02:46:46.997Z,12.18
2018-04-18T02:49:14.859Z,12.13
2018-04-18T02:51:42.803Z,12.09
2018-04-18T02:54:10.598Z,12.04
2018-04-18T02:56:38.185Z,12.05
2018-04-18T02:59:05.811Z,11.95
2018-04-18T03:01:33.599Z,11.95
2018-04-18T03:04:01.263Z,12.00
2018-04-18T03:06:28.994Z,11.89
2018-04-18T03:08:56.556Z,11.79
2018-04-18T03:11:24.142Z,11.75
2018-04-18T03:13:51.709Z,11.73
2018-04-18T03:16:19.353Z,11.71
2018-04-18T03:18:46.956Z,11.68
2018-04-18T03:21:14.531Z,11.75
2018-04-18T03:23:42.271Z,11.71
2018-04-18T03:26:09.873Z,11.77
2018-04-18T03:28:37.448Z,11.78
2018-04-18T03:31:05.009Z,11.81
2018-04-18T03:33:32.637Z,11.82
2018-04-18T03:36:00.442Z,11.76
2018-04-18T03:38:28.004Z,11.78
2018-04-18T03:40:55.601Z,11.82
2018-04-18T03:43:23.257Z,11.80
2018-04-18T03:45:50.836Z,11.84
2018-04-18T03:48:18.562Z,11.87
2018-04-18T03:50:46.165Z,11.90
2018-04-18T03:53:13.895Z,11.93
2018-04-18T03:55:41.479Z,12.04
2018-04-18T03:58:09.057Z,12.11
2018-04-18T04:00:36.665Z,12.18
2018-04-18T04:03:04.361Z,12.23
2018-04-18T04:05:31.933Z,12.27
2018-04-18T04:07:59.737Z,12.25
2018-04-18T04:10:27.373Z,12.31
2018-04-18T04:12:55.395Z,12.29
2018-04-18T04:15:22.972Z,12.35
2018-04-18T04:18:03.208Z,12.38
2018-04-18T04:20:42.815Z,12.41
2018-04-18T04:23:21.987Z,12.43
2018-04-18T04:25:49.580Z,12.48
2018-04-18T04:28:17.199Z,12.58
2018-04-18T04:30:44.769Z,12.72
2018-04-18T04:33:12.337Z,12.87
2018-04-18T04:35:40.054Z,13.01
2018-04-18T04:38:07.780Z,13.07
2018-04-18T04:40:35.341Z,13.12
2018-04-18T04:43:03.169Z,13.18
2018-04-18T04:45:30.741Z,13.22
2018-04-18T04:47:58.553Z,13.30
2018-04-18T04:50:26.272Z,13.43
2018-04-18T04:52:53.920Z,13.60
2018-04-18T04:55:21.599Z,13.85
2018-04-18T04:57:49.175Z,14.27
2018-04-18T05:00:16.754Z,14.75
2018-04-18T05:02:44.320Z,14.97
2018-04-18T05:05:11.974Z,15.27
2018-04-18T05:07:39.569Z,15.62
2018-04-18T05:10:07.308Z,16.16
2018-04-18T05:12:34.916Z,16.66
2018-04-18T05:15:02.559Z,17.02
2018-04-18T05:17:30.136Z,17.24
2018-04-18T05:19:57.850Z,17.08
2018-04-18T05:22:25.568Z,17.21
2018-04-18T05:24:53.309Z,17.26
2018-04-18T05:27:20.946Z,17.52
2018-04-18T05:29:48.684Z,17.99
2018-04-18T05:32:16.289Z,18.25
2018-04-18T05:34:43.889Z,17.97
2018-04-18T05:37:11.513Z,17.69
2018-04-18T05:39:39.077Z,17.46
2018-04-18T05:42:06.793Z,17.22
2018-04-18T05:44:34.574Z,17.19
2018-04-18T05:47:02.145Z,17.60
2018-04-18T05:49:29.718Z,18.46
2018-04-18T05:51:57.533Z,19.58
2018-04-18T05:54:25.443Z,20.43
2018-04-18T05:56:53.154Z,21.27
2018-04-18T05:59:20.764Z,21.58
2018-04-18T06:01:48.392Z,22.18
2018-04-18T06:04:16.219Z,21.95
2018-04-18T06:06:43.870Z,21.39
2018-04-18T06:09:11.449Z,20.68
2018-04-18T06:11:39.624Z,20.10
2018-04-18T06:14:07.391Z,19.54
2018-04-18T06:16:34.998Z,19.12
2018-04-18T06:19:02.719Z,18.85
2018-04-18T06:21:30.448Z,18.89
2018-04-18T06:23:58.263Z,18.95
2018-04-18T06:26:25.832Z,19.19
2018-04-18T06:28:53.600Z,19.59
2018-04-18T06:31:21.420Z,20.03
2018-04-18T06:33:48.976Z,20.24
2018-04-18T06:36:16.590Z,20.15
2018-04-18T06:38:44.373Z,20.01
2018-04-18T06:41:11.976Z,20.09
2018-04-18T06:43:39.552Z,19.98
2018-04-18T06:46:07.314Z,19.93
2018-04-18T06:48:34.938Z,19.98
2018-04-18T06:51:02.509Z,19.80
2018-04-18T06:53:30.130Z,19.51
2018-04-18T06:55:57.781Z,19.65
2018-04-18T06:58:25.341Z,19.33
2018-04-18T07:00:53.137Z,19.16
2018-04-18T07:03:20.699Z,19.34
2018-04-18T07:05:48.446Z,19.36
2018-04-18T07:08:16.008Z,20.09
2018-04-18T07:10:43.812Z,20.77
2018-04-18T07:13:11.526Z,22.33
2018-04-18T07:15:39.346Z,22.58
2018-04-18T07:18:06.924Z,22.21
2018-04-18T07:20:34.572Z,22.49
2018-04-18T07:23:02.178Z,22.27
2018-04-18T07:25:29.768Z,21.28
2018-04-18T07:27:57.598Z,21.14
2018-04-18T07:30:25.439Z,20.88
2018-04-18T07:32:53.009Z,20.40
2018-04-18T07:35:20.584Z,20.39
2018-04-18T07:37:48.408Z,20.39
2018-04-18T07:40:15.977Z,20.28
2018-04-18T07:42:43.540Z,20.24
2018-04-18T07:45:11.164Z,20.17
2018-04-18T07:47:38.733Z,19.60
2018-04-18T07:50:06.498Z,19.69
2018-04-18T07:52:34.081Z,20.56
2018-04-18T07:55:01.653Z,21.13
2018-04-18T07:57:29.258Z,20.97
2018-04-18T07:59:57.071Z,20.50
2018-04-18T08:02:24.775Z,19.67
2018-04-18T08:04:52.341Z,19.18
2018-04-18T08:07:20.046Z,18.80
2018-04-18T08:09:47.617Z,18.74
2018-04-18T08:12:15.181Z,18.71
2018-04-18T08:14:42.760Z,18.52
2018-04-18T08:17:10.324Z,19.08
2018-04-18T08:19:37.951Z,20.01
2018-04-18T08:22:05.554Z,20.35
2018-04-18T08:24:33.332Z,21.06
2018-04-18T08:27:01.069Z,21.53
2018-04-18T08:29:28.894Z,22.31
2018-04-18T08:31:56.706Z,23.56
2018-04-18T08:34:24.273Z,23.96
2018-04-18T08:36:51.919Z,24.64
2018-04-18T08:39:19.492Z,25.00
2018-04-18T08:41:47.280Z,25.60
2018-04-18T08:44:15.014Z,25.01
2018-04-18T08:46:42.607Z,25.04
2018-04-18T08:49:10.229Z,25.54
2018-04-18T08:51:38.051Z,25.72
2018-04-18T08:54:05.689Z,24.79
2018-04-18T08:56:33.278Z,23.15
2018-04-18T08:59:00.895Z,21.76
2018-04-18T09:01:28.482Z,21.03
2018-04-18T09:03:56.131Z,20.59
2018-04-18T09:06:23.743Z,20.23
2018-04-18T09:08:51.307Z,19.96
2018-04-18T09:11:18.924Z,20.19
2018-04-18T09:13:46.497Z,20.59
2018-04-18T09:16:14.060Z,21.56
2018-04-18T09:18:41.696Z,22.70
2018-04-18T09:21:09.280Z,24.05
2018-04-18T09:23:36.872Z,24.11
2018-04-18T09:26:04.701Z,23.11
2018-04-18T09:28:32.274Z,22.89
2018-04-18T09:31:00.012Z,23.77
2018-04-18T09:33:27.573Z,24.87
2018-04-18T09:35:55.148Z,25.61
2018-04-18T09:38:22.753Z,26.65
2018-04-18T09:40:50.326Z,25.95
2018-04-18T09:43:17.908Z,25.31
2018-04-18T09:45:45.472Z,25.25
2018-04-18T09:48:13.048Z,26.04
2018-04-18T09:50:40.781Z,26.80
2018-04-18T09:53:08.480Z,26.89
2018-04-18T09:55:36.053Z,27.20
2018-04-18T09:58:03.726Z,27.23
2018-04-18T10:00:37.005Z,27.64
2018-04-18T10:03:05.417Z,28.04
2018-04-18T10:05:33.052Z,28.28
2018-04-18T10:08:00.829Z,27.22
2018-04-18T10:10:28.441Z,27.40
2018-04-18T10:12:56.250Z,26.65
2018-04-18T10:15:23.821Z,26.08
2018-04-18T10:17:51.451Z,26.06
2018-04-18T10:20:19.016Z,25.71
2018-04-18T10:22:46.682Z,26.09
2018-04-18T10:25:14.460Z,25.44
2018-04-18T10:27:42.068Z,24.99
2018-04-18T10:30:09.667Z,25.09
2018-04-18T10:32:37.221Z,25.69
2018-04-18T10:35:05.119Z,25.87
2018-04-18T10:37:32.946Z,26.21
2018-04-18T10:40:00.765Z,26.35
2018-04-18T10:42:28.350Z,26.28
2018-04-18T10:44:55.951Z,25.52
2018-04-18T10:47:23.686Z,24.82
2018-04-18T10:49:51.273Z,24.65
2018-04-18T10:52:18.889Z,25.28
2018-04-18T10:54:46.516Z,26.02
2018-04-18T10:57:14.085Z,26.42
2018-04-18T10:59:41.652Z,26.26
2018-04-18T11:02:09.237Z,26.07
2018-04-18T11:04:37.046Z,26.22
2018-04-18T11:07:04.612Z,25.45
2018-04-18T11:09:32.226Z,25.10
2018-04-18T11:11:59.945Z,25.28
2018-04-18T11:14:27.536Z,25.54
2018-04-18T11:16:55.547Z,25.63
2018-04-18T11:19:23.355Z,25.66
2018-04-18T11:21:50.977Z,25.42
2018-04-18T11:24:18.692Z,25.46
2018-04-18T11:26:46.350Z,25.92
2018-04-18T11:29:13.931Z,26.20
2018-04-18T11:31:41.614Z,25.79
2018-04-18T11:34:09.332Z,25.96
2018-04-18T11:36:37.050Z,26.11
2018-04-18T11:39:04.700Z,25.37
2018-04-18T11:41:32.420Z,25.02
2018-04-18T11:44:00.153Z,25.36
2018-04-18T11:46:27.721Z,25.90
2018-04-18T11:48:55.303Z,25.58
2018-04-18T11:51:23.109Z,25.47
2018-04-18T11:53:50.745Z,25.95
2018-04-18T11:56:18.317Z,26.01
2018-04-18T11:58:45.878Z,25.18
2018-04-18T12:01:13.512Z,25.32
2018-04-18T12:03:41.080Z,25.71
2018-04-18T12:06:08.657Z,26.25
2018-04-18T12:08:36.419Z,26.31
2018-04-18T12:11:03.978Z,26.56
2018-04-18T12:13:31.758Z,26.90
2018-04-18T12:15:59.571Z,26.27
2018-04-18T12:18:27.188Z,25.86
2018-04-18T12:20:54.936Z,25.91
2018-04-18T12:23:22.505Z,25.37
2018-04-18T12:25:50.082Z,25.99
2018-04-18T12:28:17.747Z,26.73
2018-04-18T12:30:45.320Z,26.79
2018-04-18T12:33:12.883Z,26.52
2018-04-18T12:35:40.717Z,26.06
2018-04-18T12:38:08.325Z,26.07
2018-04-18T12:40:36.154Z,25.56
2018-04-18T12:43:03.720Z,25.27
2018-04-18T12:45:31.327Z,25.32
2018-04-18T12:47:59.110Z,25.11
2018-04-18T12:50:26.650Z,25.02
2018-04-18T12:52:54.443Z,24.77
2018-04-18T12:55:22.264Z,24.57
2018-04-18T12:57:49.908Z,24.80
2018-04-18T13:00:17.468Z,24.64
2018-04-18T13:02:45.080Z,24.91
2018-04-18T13:05:12.805Z,24.91
2018-04-18T13:07:40.550Z,24.99
2018-04-18T13:10:08.373Z,25.04
2018-04-18T13:12:36.191Z,25.09
2018-04-18T13:15:03.829Z,25.33
2018-04-18T13:17:31.410Z,25.44
2018-04-18T13:19:58.972Z,25.83
2018-04-18T13:22:26.534Z,26.03
2018-04-18T13:24:54.087Z,25.87
2018-04-18T13:27:21.783Z,25.85
2018-04-18T13:29:49.502Z,25.54
2018-04-18T13:32:17.234Z,25.25
2018-04-18T13:34:44.796Z,25.25
2018-04-18T13:37:12.348Z,25.04
2018-04-18T13:39:40.188Z,24.99
2018-04-18T13:42:07.800Z,25.41
2018-04-18T13:44:35.576Z,25.50
2018-04-18T13:47:03.156Z,25.63
2018-04-18T13:49:30.963Z,25.66
2018-04-18T13:51:58.547Z,25.65
2018-04-18T13:54:26.105Z,25.58
2018-04-18T13:56:53.698Z,25.33
2018-04-18T13:59:21.437Z,25.22
2018-04-18T14:01:49.141Z,25.40
2018-04-18T14:04:16.719Z,25.21
2018-04-18T14:06:44.266Z,25.04
2018-04-18T14:09:12.004Z,24.80
2018-04-18T14:11:39.826Z,24.75
2018-04-18T14:14:07.552Z,24.70
2018-04-18T14:16:35.130Z,24.61
2018-04-18T14:19:02.885Z,24.68
2018-04-18T14:21:30.696Z,24.65
2018-04-18T14:23:58.254Z,24.60
2018-04-18T14:26:25.924Z,24.72
2018-04-18T14:28:53.487Z,24.80
2018-04-18T14:31:21.250Z,24.88
2018-04-18T14:33:48.959Z,25.01
2018-04-18T14:36:16.572Z,24.87
2018-04-18T14:38:44.214Z,24.66
2018-04-18T14:41:11.779Z,24.65
2018-04-18T14:43:39.367Z,24.52
2018-04-18T14:46:07.177Z,24.62
2018-04-18T14:48:34.744Z,24.47
2018-04-18T14:51:02.512Z,24.06
2018-04-18T14:53:30.128Z,24.05
2018-04-18T14:55:57.949Z,23.88
2018-04-18T14:58:28.699Z,23.83
2018-04-18T15:00:56.309Z,23.57
2018-04-18T15:03:23.876Z,23.21
2018-04-18T15:05:51.612Z,23.13
2018-04-18T15:08:19.350Z,22.89
2018-04-18T15:10:46.972Z,22.69
2018-04-18T15:13:14.558Z,22.65
2018-04-18T15:15:42.195Z,22.63
2018-04-18T15:18:09.766Z,22.57
2018-04-18T15:20:37.341Z,22.34
2018-04-18T15:23:04.929Z,22.28
2018-04-18T15:25:32.561Z,22.35
2018-04-18T15:28:00.216Z,22.36
2018-04-18T15:30:27.776Z,22.34
2018-04-18T15:32:55.496Z,22.36
2018-04-18T15:35:23.093Z,22.22
2018-04-18T15:37:50.830Z,22.06
2018-04-18T15:40:18.398Z,21.93
2018-04-18T15:42:46.204Z,21.74
2018-04-18T15:45:13.816Z,21.70
2018-04-18T15:47:41.641Z,21.63
2018-04-18T15:50:09.222Z,21.53
2018-04-18T15:52:36.868Z,21.39
2018-04-18T15:55:04.448Z,21.35
2018-04-18T15:57:32.020Z,21.36
2018-04-18T15:59:59.730Z,21.30
2018-04-18T16:02:27.293Z,21.29
2018-04-18T16:04:54.864Z,21.20
2018-04-18T16:07:22.430Z,21.11
2018-04-18T16:09:50.016Z,21.01
2018-04-18T16:12:17.580Z,20.91
2018-04-18T16:14:45.237Z,20.78
2018-04-18T16:17:12.847Z,20.70
2018-04-18T16:19:40.679Z,20.68
2018-04-18T16:22:08.248Z,20.64
2018-04-18T16:24:35.999Z,20.56
2018-04-18T16:27:03.728Z,20.47
2018-04-18T16:29:43.136Z,20.39
2018-04-18T16:32:10.714Z,20.35
2018-04-18T16:34:38.275Z,20.30
2018-04-18T16:37:05.888Z,20.26
2018-04-18T16:39:33.551Z,20.16
2018-04-18T16:42:01.145Z,20.06
2018-04-18T16:44:28.858Z,19.98
2018-04-18T16:46:56.428Z,19.93
2018-04-18T16:49:23.997Z,19.89
2018-04-18T16:51:51.575Z,19.84
2018-04-18T16:54:19.367Z,19.71
2018-04-18T16:56:47.189Z,19.65
2018-04-18T16:59:14.796Z,19.55
2018-04-18T17:01:42.623Z,19.49
2018-04-18T17:04:10.176Z,19.42
2018-04-18T17:06:37.773Z,19.32
2018-04-18T17:09:05.397Z,19.22
2018-04-18T17:11:33.017Z,19.13
2018-04-18T17:14:00.571Z,19.02
2018-04-18T17:16:28.140Z,18.93
2018-04-18T17:18:55.714Z,18.87
2018-04-18T17:21:23.285Z,18.82
2018-04-18T17:23:50.997Z,18.74
2018-04-18T17:26:18.802Z,18.73
2018-04-18T17:28:46.652Z,18.70
2018-04-18T17:31:14.404Z,18.63
2018-04-18T17:33:41.975Z,18.57
2018-04-18T17:36:09.656Z,18.59
2018-04-18T17:38:37.283Z,18.54
2018-04-18T17:41:05.043Z,18.46
2018-04-18T17:43:32.606Z,18.37
2018-04-18T17:46:00.352Z,18.27
2018-04-18T17:48:28.166Z,18.17
2018-04-18T17:50:55.723Z,18.16
2018-04-18T17:53:23.503Z,18.11
2018-04-18T17:55:51.223Z,18.07
2018-04-18T17:58:19.041Z,18.03
2018-04-18T18:00:46.604Z,17.91
2018-04-18T18:03:14.220Z,17.89
2018-04-18T18:05:41.797Z,17.82
2018-04-18T18:08:09.393Z,17.71
2018-04-18T18:10:37.233Z,17.66
2018-04-18T18:13:04.828Z,17.54
2018-04-18T18:15:32.668Z,17.52
2018-04-18T18:18:00.259Z,17.49
2018-04-18T18:20:28.022Z,17.46
2018-04-18T18:22:55.610Z,17.35
2018-04-18T18:25:23.199Z,17.30
2018-04-18T18:27:50.800Z,17.26
2018-04-18T18:30:18.424Z,17.15
2018-04-18T18:32:46.004Z,17.13
2018-04-18T18:35:13.810Z,17.11
2018-04-18T18:37:41.630Z,17.11
2018-04-18T18:40:09.208Z,17.14
2018-04-18T18:42:36.967Z,17.11
2018-04-18T18:45:04.559Z,17.06
2018-04-18T18:47:32.220Z,16.96
2018-04-18T18:49:59.787Z,16.94
2018-04-18T18:52:27.538Z,16.89
2018-04-18T18:54:55.356Z,16.80
2018-04-18T18:57:22.933Z,16.79
2018-04-18T18:59:50.581Z,16.72
2018-04-18T19:02:18.249Z,16.73
2018-04-18T19:04:45.825Z,16.71
2018-04-18T19:07:13.388Z,16.70
2018-04-18T19:09:41.180Z,16.64
2018-04-18T19:12:08.799Z,16.69
2018-04-18T19:14:36.404Z,16.70
2018-04-18T19:17:04.008Z,16.68
2018-04-18T19:19:31.576Z,16.63
2018-04-18T19:21:59.355Z,16.53
2018-04-18T19:24:26.941Z,16.48
2018-04-18T19:26:54.512Z,16.45
2018-04-18T19:29:22.310Z,16.36
2018-04-18T19:31:49.892Z,16.33
2018-04-18T19:34:17.465Z,16.31
2018-04-18T19:36:45.124Z,16.33
2018-04-18T19:39:12.716Z,16.30
2018-04-18T19:41:40.499Z,16.22
2018-04-18T19:44:08.318Z,16.20
2018-04-18T19:46:36.828Z,16.19
2018-04-18T19:49:04.659Z,16.10
2018-04-18T19:51:32.340Z,16.03
2018-04-18T19:53:59.972Z,16.01
2018-04-18T19:56:27.536Z,15.98
2018-04-18T19:58:55.331Z,15.95
2018-04-18T20:01:23.148Z,15.97
2018-04-18T20:03:50.717Z,15.98
2018-04-18T20:06:18.493Z,16.06
2018-04-18T20:08:46.093Z,16.08
2018-04-18T20:11:13.709Z,16.11
2018-04-18T20:13:41.313Z,16.07
2018-04-18T20:16:08.905Z,16.03
2018-04-18T20:18:36.683Z,15.97
2018-04-18T20:21:04.353Z,15.97
2018-04-18T20:23:31.925Z,15.94
2018-04-18T20:25:59.730Z,15.88
2018-04-18T20:28:27.421Z,15.93
2018-04-18T20:30:54.980Z,15.94
2018-04-18T20:33:22.561Z,15.94
2018-04-18T20:35:50.153Z,15.92
2018-04-18T20:38:17.716Z,15.91
2018-04-18T20:40:45.559Z,15.91
2018-04-18T20:43:13.357Z,15.86
2018-04-18T20:45:40.921Z,15.93
2018-04-18T20:48:08.665Z,15.85
2018-04-18T20:50:36.286Z,15.85
2018-04-18T20:53:03.877Z,15.82
2018-04-18T20:55:31.527Z,15.80
2018-04-18T20:57:59.054Z,15.86
2018-04-18T21:00:26.673Z,15.96
2018-04-18T21:02:54.502Z,15.97
2018-04-18T21:05:22.319Z,15.99
2018-04-18T21:07:49.945Z,15.95
2018-04-18T21:10:17.535Z,15.93
2018-04-18T21:12:45.137Z,15.97
2018-04-18T21:15:12.790Z,16.03
2018-04-18T21:17:40.592Z,16.04
2018-04-18T21:20:08.176Z,16.01
2018-04-18T21:22:35.925Z,15.93
2018-04-18T21:25:03.650Z,15.93
2018-04-18T21:27:31.282Z,15.94
2018-04-18T21:29:58.848Z,15.91
2018-04-18T21:32:26.618Z,15.81
2018-04-18T21:34:54.185Z,15.82
2018-04-18T21:37:21.954Z,15.86
2018-04-18T21:39:49.564Z,15.81
2018-04-18T21:42:17.241Z,15.83
2018-04-18T21:44:44.818Z,15.82
2018-04-18T21:47:12.384Z,15.77
2018-04-18T21:49:39.952Z,15.75
2018-04-18T21:52:07.521Z,15.65
2018-04-18T21:54:35.279Z,15.65
2018-04-18T21:57:02.864Z,15.66
2018-04-18T21:59:30.501Z,15.65
2018-04-18T22:01:58.234Z,15.63
2018-04-18T22:04:25.800Z,15.65
2018-04-18T22:06:53.419Z,15.56
2018-04-18T22:09:21.193Z,15.50
2018-04-18T22:11:48.776Z,15.45
2018-04-18T22:14:16.344Z,15.42
2018-04-18T22:16:44.156Z,15.36
2018-04-18T22:19:11.729Z,15.39
2018-04-18T22:21:39.341Z,15.43
2018-04-18T22:24:06.917Z,15.41
2018-04-18T22:26:34.482Z,15.42
2018-04-18T22:29:02.227Z,15.48
2018-04-18T22:31:29.809Z,15.42
2018-04-18T22:33:57.436Z,15.41
2018-04-18T22:36:24.992Z,15.42
2018-04-18T22:38:52.580Z,15.35
2018-04-18T22:41:20.361Z,15.34
2018-04-18T22:43:48.100Z,15.39
2018-04-18T22:46:15.857Z,15.42
2018-04-18T22:48:43.424Z,15.46
2018-04-18T22:51:11.194Z,15.44
2018-04-18T22:53:38.787Z,15.42
2018-04-18T22:56:06.422Z,15.40
2018-04-18T22:58:34.148Z,15.43
2018-04-18T23:01:01.862Z,15.41
2018-04-18T23:03:29.575Z,15.39
2018-04-18T23:05:57.331Z,15.40
2018-04-18T23:08:24.911Z,15.37
2018-04-18T23:10:52.741Z,15.33
2018-04-18T23:13:20.559Z,15.29
2018-04-18T23:15:48.125Z,15.33
2018-04-18T23:18:15.699Z,15.35
2018-04-18T23:20:43.276Z,15.36
2018-04-18T23:23:10.913Z,15.41
2018-04-18T23:25:38.489Z,15.41
2018-04-18T23:28:06.157Z,15.39
2018-04-18T23:30:33.776Z,15.41
2018-04-18T23:33:01.376Z,15.39
2018-04-18T23:35:29.106Z,15.35
2018-04-18T23:37:56.839Z,15.27
2018-04-18T23:40:24.659Z,15.28
2018-04-18T23:42:52.284Z,15.30
2018-04-18T23:45:19.880Z,15.34
2018-04-18T23:47:47.498Z,15.34
2018-04-18T23:50:15.329Z,15.30
2018-04-18T23:52:42.993Z,15.28
2018-04-18T23:55:10.561Z,15.29
2018-04-18T23:57:38.387Z,15.30
